Aviation Digital Data Service (ADDS)

Output produced by METARs form (1711 UTC 26 July 2014)
found at http://www.aviationweather.gov/adds/metars/
 
METAR text: EPBY 261700Z 05008KT CAVOK 27/18 Q1014
Conditions at: EPBY (BYDGOSZDZ , PL) observed 1700 UTC 26 July 2014
Temperature: 27.0°C (81°F)
Dewpoint: 18.0°C (64°F) [RH = 58%]
Pressure (altimeter): 29.94 inches Hg (1014.0 mb)
Winds: from the NE (50 degrees) at 9 MPH (8 knots; 4.2 m/s)
Visibility: 6 or more miles (10+ km)
Ceiling: ceiling and visibility are OK
Clouds: unknown
Weather: no significant weather observed at this time

Forecast for: EPBY (BYDGOSZDZ , PL)
Text: TAF EPBY 261430Z 2615/2624 08007KT CAVOK
Forecast period: 1500 UTC 26 July 2014 to 0000 UTC 27 July 2014
Forecast type: FROM: standard forecast or significant change
Winds: from the E (80 degrees) at 8 MPH (7 knots; 3.6 m/s)
Visibility: 6 or more miles (10+ km)
Clouds: not forecast
Weather: NSW  (no significant weather)
Text: PROB30
Forecast period: 1600 to 1800 UTC 26 July 2014
Forecast type: TEMPORARY: The following changes expected for less than half the time period
Visibility: 3 miles (5 km)
Ceiling: 4000 feet AGL
Clouds: broken clouds at 4000 feet AGL
Weather: TSRA  (rain associated with thunderstorm(s))